createdAt,value
2019-01-13T00:02:00.691Z,8.79
2019-01-13T00:04:39.609Z,8.72
2019-01-13T00:07:11.465Z,8.77
2019-01-13T00:09:42.025Z,8.72
2019-01-13T00:12:12.998Z,8.80
2019-01-13T00:14:59.087Z,8.85
2019-01-13T00:17:40.114Z,8.87
2019-01-13T00:20:41.380Z,8.88
2019-01-13T00:23:29.637Z,8.93
2019-01-13T00:26:14.295Z,8.98
2019-01-13T00:28:53.537Z,8.93
2019-01-13T00:31:57.379Z,8.91
2019-01-13T00:34:25.823Z,8.96
2019-01-13T00:37:07.508Z,8.95
2019-01-13T00:42:54.972Z,8.94
2019-01-13T00:45:47.087Z,8.89
2019-01-13T00:48:28.813Z,8.90
2019-01-13T00:51:03.238Z,8.97
2019-01-13T00:53:33.968Z,9.01
2019-01-13T00:56:06.447Z,8.98
2019-01-13T00:58:48.478Z,8.96
2019-01-13T01:01:20.886Z,8.96
2019-01-13T01:08:59.939Z,8.99
2019-01-13T01:12:15.362Z,8.97
2019-01-13T01:31:21.904Z,8.85
2019-01-13T01:34:24.617Z,8.89
2019-01-13T01:36:59.917Z,8.93
2019-01-13T01:39:41.863Z,8.95
2019-01-13T01:42:16.326Z,8.98
2019-01-13T01:44:52.502Z,8.96
2019-01-13T01:47:26.721Z,8.98
2019-01-13T01:50:25.094Z,8.99
2019-01-13T01:53:01.064Z,8.97
2019-01-13T01:55:40.445Z,8.97
2019-01-13T01:58:12.451Z,8.96
2019-01-13T02:00:43.388Z,8.93
2019-01-13T02:03:13.913Z,8.96
2019-01-13T02:05:45.904Z,9.01
2019-01-13T02:08:16.501Z,9.01
2019-01-13T02:10:48.566Z,9.02
2019-01-13T02:13:19.347Z,9.06
2019-01-13T02:15:49.878Z,9.06
2019-01-13T02:18:20.399Z,9.08
2019-01-13T02:21:05.111Z,9.06
2019-01-13T02:23:23.173Z,9.07
2019-01-13T02:25:55.820Z,9.03
2019-01-13T02:28:26.703Z,9.03
2019-01-13T02:30:58.234Z,9.03
2019-01-13T02:33:28.904Z,9.08
2019-01-13T02:35:59.331Z,9.06
2019-01-13T02:38:29.789Z,9.06
2019-01-13T02:41:00.427Z,9.05
2019-01-13T02:43:33.505Z,9.04
2019-01-13T02:46:06.034Z,9.05
2019-01-13T02:48:40.907Z,9.09
2019-01-13T02:51:11.785Z,9.09
2019-01-13T02:53:42.384Z,9.08
2019-01-13T02:56:12.827Z,9.11
2019-01-13T02:58:43.224Z,9.12
2019-01-13T03:01:13.746Z,9.17
2019-01-13T03:03:44.154Z,9.23
2019-01-13T03:06:14.701Z,9.25
2019-01-13T03:08:45.187Z,9.25
2019-01-13T03:11:17.100Z,9.21
2019-01-13T03:13:48.741Z,9.23
2019-01-13T03:16:24.325Z,9.20
2019-01-13T03:18:54.516Z,9.22
2019-01-13T03:21:33.114Z,9.17
2019-01-13T03:24:06.375Z,9.18
2019-01-13T03:26:40.538Z,9.20
2019-01-13T03:29:11.064Z,9.25
2019-01-13T03:31:41.562Z,9.26
2019-01-13T03:34:12.278Z,9.27
2019-01-13T03:36:44.182Z,9.25
2019-01-13T03:39:15.211Z,9.20
2019-01-13T03:41:49.069Z,9.25
2019-01-13T03:44:19.623Z,9.27
2019-01-13T03:46:52.746Z,9.28
2019-01-13T03:49:32.814Z,9.28
2019-01-13T03:52:06.530Z,9.27
2019-01-13T03:54:37.773Z,9.30
2019-01-13T03:57:09.747Z,9.31
2019-01-13T03:59:40.597Z,9.29
2019-01-13T04:02:14.353Z,9.26
2019-01-13T04:04:45.049Z,9.26
2019-01-13T04:07:16.926Z,9.23
2019-01-13T04:09:53.449Z,9.20
2019-01-13T04:12:23.930Z,9.16
2019-01-13T04:14:54.487Z,9.17
2019-01-13T04:17:28.747Z,9.19
2019-01-13T04:19:59.684Z,9.17
2019-01-13T04:22:30.138Z,9.16
2019-01-13T04:25:00.828Z,9.16
2019-01-13T04:27:31.368Z,9.18
2019-01-13T04:30:01.850Z,9.14
2019-01-13T04:32:32.498Z,9.16
2019-01-13T04:35:09.287Z,9.11
2019-01-13T04:37:42.188Z,9.10
2019-01-13T04:40:18.917Z,9.07
2019-01-13T04:42:49.576Z,9.05
2019-01-13T04:45:22.812Z,9.08
2019-01-13T04:47:55.464Z,9.08
2019-01-13T04:50:27.195Z,9.09
2019-01-13T04:52:59.664Z,9.14
2019-01-13T04:55:30.855Z,9.13
2019-01-13T04:58:01.329Z,9.10
2019-01-13T05:00:31.972Z,9.10
2019-01-13T05:03:10.160Z,9.09
2019-01-13T05:05:45.909Z,9.07
2019-01-13T05:08:21.270Z,9.09
2019-01-13T05:10:52.868Z,9.13
2019-01-13T05:13:25.137Z,9.15
2019-01-13T05:15:57.112Z,9.15
2019-01-13T05:18:29.585Z,9.13
2019-01-13T05:21:01.723Z,9.17
2019-01-13T05:23:34.092Z,9.19
2019-01-13T05:26:07.706Z,9.14
2019-01-13T05:28:48.811Z,9.13
2019-01-13T05:31:16.988Z,9.16
2019-01-13T05:33:53.312Z,9.20
2019-01-13T05:36:27.026Z,9.23
2019-01-13T05:39:05.921Z,9.26
2019-01-13T05:41:39.552Z,9.27
2019-01-13T05:44:12.631Z,9.29
2019-01-13T05:46:43.081Z,9.26
2019-01-13T05:49:14.072Z,9.24
2019-01-13T05:51:44.686Z,9.23
2019-01-13T05:54:18.060Z,9.24
2019-01-13T05:56:49.936Z,9.24
2019-01-13T05:59:23.660Z,9.25
2019-01-13T06:01:57.639Z,9.19
2019-01-13T06:04:28.960Z,9.19
2019-01-13T06:07:03.902Z,9.21
2019-01-13T06:09:37.171Z,9.18
2019-01-13T06:12:09.700Z,9.16
2019-01-13T06:14:49.761Z,9.17
2019-01-13T06:17:26.597Z,9.18
2019-01-13T06:20:00.380Z,9.21
2019-01-13T06:22:32.667Z,9.19
2019-01-13T06:25:06.446Z,9.23
2019-01-13T06:27:37.069Z,9.23
2019-01-13T06:30:12.805Z,9.24
2019-01-13T06:32:45.077Z,9.21
2019-01-13T06:35:17.381Z,9.23
2019-01-13T06:37:54.274Z,9.26
2019-01-13T06:40:25.136Z,9.27
2019-01-13T06:42:57.587Z,9.27
2019-01-13T06:45:31.494Z,9.19
2019-01-13T06:48:02.262Z,9.20
2019-01-13T06:50:39.986Z,9.14
2019-01-13T06:53:13.378Z,9.12
2019-01-13T06:55:47.222Z,9.14
2019-01-13T06:58:20.939Z,9.12
2019-01-13T07:00:55.095Z,9.10
2019-01-13T07:03:25.614Z,9.13
2019-01-13T07:05:56.202Z,9.14
2019-01-13T07:08:29.199Z,9.12
2019-01-13T07:11:02.400Z,9.13
2019-01-13T07:13:34.485Z,9.12
2019-01-13T07:16:05.099Z,9.15
2019-01-13T07:18:43.156Z,9.16
2019-01-13T07:21:18.661Z,9.18
2019-01-13T07:23:56.271Z,9.18
2019-01-13T07:26:36.607Z,9.16
2019-01-13T07:29:22.840Z,9.14
2019-01-13T07:31:59.406Z,9.13
2019-01-13T07:34:30.118Z,9.12
2019-01-13T07:37:01.055Z,9.09
2019-01-13T07:39:31.603Z,9.13
2019-01-13T07:42:04.034Z,9.15
2019-01-13T07:44:44.642Z,9.10
2019-01-13T07:47:19.143Z,9.09
2019-01-13T07:49:54.501Z,9.09
2019-01-13T07:52:33.722Z,9.12
2019-01-13T07:55:33.447Z,9.15
2019-01-13T07:58:25.993Z,9.19
2019-01-13T08:01:13.498Z,9.15
2019-01-13T08:03:59.350Z,9.16
2019-01-13T08:06:34.208Z,9.18
2019-01-13T08:09:14.274Z,9.19
2019-01-13T08:11:50.312Z,9.17
2019-01-13T08:14:32.422Z,9.15
2019-01-13T08:17:10.155Z,9.23
2019-01-13T08:19:41.040Z,9.28
2019-01-13T08:22:14.594Z,9.32
2019-01-13T08:24:58.316Z,9.36
2019-01-13T08:27:41.457Z,9.35
2019-01-13T08:30:24.282Z,9.32
2019-01-13T08:33:01.157Z,9.29
2019-01-13T08:35:35.031Z,9.28
2019-01-13T08:38:13.937Z,9.34
2019-01-13T08:40:56.060Z,9.38
2019-01-13T08:43:48.717Z,9.39
2019-01-13T08:46:35.727Z,9.34
2019-01-13T08:49:10.766Z,9.32
2019-01-13T08:51:51.837Z,9.36
2019-01-13T08:54:42.754Z,9.43
2019-01-13T08:57:16.851Z,9.42
2019-01-13T09:00:01.947Z,9.41
2019-01-13T09:02:40.824Z,9.41
2019-01-13T09:05:13.729Z,9.38
2019-01-13T09:07:44.301Z,9.31
2019-01-13T09:10:21.567Z,9.32
2019-01-13T09:13:01.302Z,9.33
2019-01-13T09:15:33.575Z,9.34
2019-01-13T09:18:11.266Z,9.38
2019-01-13T09:20:58.376Z,9.37
2019-01-13T09:23:28.935Z,9.35
2019-01-13T09:26:02.241Z,9.31
2019-01-13T09:28:43.259Z,9.29
2019-01-13T09:31:18.864Z,9.30
2019-01-13T09:34:07.091Z,9.32
2019-01-13T09:36:49.447Z,9.37
2019-01-13T09:39:22.130Z,9.45
2019-01-13T09:42:02.939Z,9.53
2019-01-13T09:44:48.585Z,9.56
2019-01-13T09:47:18.555Z,9.61
2019-01-13T09:49:52.171Z,9.60
2019-01-13T09:52:27.098Z,9.57
2019-01-13T09:55:02.587Z,9.53
2019-01-13T09:57:46.388Z,9.50
2019-01-13T10:00:30.591Z,9.49
2019-01-13T10:03:03.625Z,9.50
2019-01-13T10:05:37.532Z,9.51
2019-01-13T10:08:19.981Z,9.57
2019-01-13T10:10:53.252Z,9.61
2019-01-13T10:13:36.250Z,9.66
2019-01-13T10:16:13.982Z,9.74
2019-01-13T10:18:49.948Z,9.79
2019-01-13T10:21:20.538Z,9.73
2019-01-13T10:23:56.038Z,9.70
2019-01-13T10:26:34.198Z,9.65
2019-01-13T10:29:15.620Z,9.56
2019-01-13T10:31:46.378Z,9.52
2019-01-13T10:34:19.362Z,9.54
2019-01-13T10:36:54.578Z,9.54
2019-01-13T10:39:25.516Z,9.57
2019-01-13T10:41:56.318Z,9.48
2019-01-13T10:44:40.348Z,9.50
2019-01-13T10:47:13.144Z,9.48
2019-01-13T10:49:44.900Z,9.46
2019-01-13T10:52:19.986Z,9.47
2019-01-13T10:54:56.247Z,9.44
2019-01-13T10:57:48.916Z,9.49
2019-01-13T11:00:37.801Z,9.59
2019-01-13T11:03:21.153Z,9.57
2019-01-13T11:05:56.398Z,9.37
2019-01-13T11:08:30.554Z,9.37
2019-01-13T11:11:03.332Z,9.41
2019-01-13T11:13:40.651Z,9.38
2019-01-13T11:16:13.631Z,9.28
2019-01-13T11:18:46.424Z,9.15
2019-01-13T11:21:19.022Z,9.10
2019-01-13T11:23:49.881Z,9.09
2019-01-13T11:26:20.640Z,9.04
2019-01-13T11:28:51.678Z,9.02
2019-01-13T11:31:26.276Z,9.00
2019-01-13T11:34:23.611Z,8.96
2019-01-13T11:37:08.103Z,8.87
2019-01-13T11:42:41.107Z,8.80
2019-01-13T11:45:54.569Z,8.83
2019-01-13T11:48:32.448Z,8.83
2019-01-13T11:51:17.163Z,8.92
2019-01-13T11:53:52.530Z,8.93
2019-01-13T11:56:39.478Z,8.92
2019-01-13T11:59:25.674Z,8.97
2019-01-13T12:02:12.394Z,9.04
2019-01-13T12:04:54.636Z,9.10
2019-01-13T12:07:44.245Z,9.15
2019-01-13T12:11:01.969Z,9.23
2019-01-13T12:13:56.965Z,9.28
2019-01-13T12:16:32.224Z,9.33
2019-01-13T12:19:13.141Z,9.35
2019-01-13T12:21:48.916Z,9.39
2019-01-13T12:27:36.271Z,9.48
2019-01-13T12:30:27.636Z,9.58
2019-01-13T12:33:14.577Z,9.62
2019-01-13T12:36:43.575Z,9.70
2019-01-13T12:39:29.989Z,9.76
2019-01-13T12:42:12.212Z,9.77
2019-01-13T12:45:05.561Z,9.74
2019-01-13T12:48:00.974Z,9.83
2019-01-13T12:52:30.730Z,9.91
2019-01-13T12:54:07.727Z,9.97
2019-01-13T12:56:46.140Z,10.03
2019-01-13T12:59:21.906Z,10.05
2019-01-13T13:02:00.730Z,10.09
2019-01-13T13:04:37.311Z,10.12
2019-01-13T13:07:16.750Z,10.03
2019-01-13T13:09:53.261Z,9.99
2019-01-13T13:12:28.474Z,10.06
2019-01-13T13:15:04.305Z,10.12
2019-01-13T13:17:37.092Z,10.12
2019-01-13T13:20:22.925Z,10.13
2019-01-13T13:22:56.861Z,10.16
2019-01-13T13:25:31.813Z,10.16
2019-01-13T13:28:01.146Z,10.18
2019-01-13T13:30:42.296Z,10.19
2019-01-13T13:33:12.999Z,10.26
2019-01-13T13:35:43.736Z,10.27
2019-01-13T13:38:17.503Z,10.32
2019-01-13T13:40:48.263Z,10.34
2019-01-13T13:43:19.074Z,10.39
2019-01-13T13:45:53.893Z,10.36
2019-01-13T13:48:25.362Z,10.32
2019-01-13T13:51:10.754Z,10.25
2019-01-13T13:54:08.538Z,10.26
2019-01-13T13:56:53.763Z,10.28
2019-01-13T13:59:31.507Z,10.22
2019-01-13T14:02:10.269Z,10.18
2019-01-13T14:04:49.887Z,10.27
2019-01-13T14:07:30.640Z,10.25
2019-01-13T14:10:16.185Z,10.28
2019-01-13T14:13:05.138Z,10.30
2019-01-13T14:15:39.929Z,10.36
2019-01-13T14:18:19.418Z,10.44
2019-01-13T14:21:08.655Z,10.52
2019-01-13T14:23:43.016Z,10.54
2019-01-13T14:26:17.151Z,10.58
2019-01-13T14:28:53.488Z,10.61
2019-01-13T14:31:30.014Z,10.61
2019-01-13T14:34:03.363Z,10.64
2019-01-13T14:36:49.232Z,10.67
2019-01-13T14:39:22.141Z,10.64
2019-01-13T14:42:08.373Z,10.66
2019-01-13T14:44:44.554Z,10.74
2019-01-13T14:47:26.334Z,10.70
2019-01-13T14:50:19.088Z,10.74
2019-01-13T14:53:01.690Z,10.75
2019-01-13T14:57:32.451Z,10.73
2019-01-13T15:03:03.640Z,10.66
2019-01-13T15:05:32.374Z,10.70
2019-01-13T15:08:07.010Z,10.73
2019-01-13T15:11:12.482Z,10.76
2019-01-13T15:20:15.368Z,10.69
2019-01-13T15:23:12.667Z,10.70
2019-01-13T15:25:57.133Z,10.73
2019-01-13T15:28:41.490Z,10.76
2019-01-13T15:31:19.759Z,10.74
2019-01-13T15:36:58.030Z,10.90
2019-01-13T15:39:51.518Z,10.92
2019-01-13T15:42:41.872Z,10.93
2019-01-13T15:46:43.539Z,10.87
2019-01-13T15:49:23.039Z,10.84
2019-01-13T15:52:22.569Z,10.86
2019-01-13T15:55:27.140Z,10.90
2019-01-13T15:58:30.024Z,10.90
2019-01-13T16:02:19.611Z,10.84
2019-01-13T16:05:39.112Z,10.82
2019-01-13T16:08:42.951Z,10.89
2019-01-13T16:11:32.542Z,10.88
2019-01-13T16:14:09.999Z,10.89
2019-01-13T16:17:12.210Z,10.93
2019-01-13T16:19:46.887Z,10.91
2019-01-13T16:22:20.382Z,10.94
2019-01-13T16:24:54.977Z,10.92
2019-01-13T16:28:02.364Z,10.92
2019-01-13T16:31:52.771Z,10.95
2019-01-13T16:34:33.298Z,10.90
2019-01-13T16:37:14.955Z,10.87
2019-01-13T16:40:46.346Z,10.88
2019-01-13T16:45:53.214Z,10.93
2019-01-13T16:47:33.178Z,10.94
2019-01-13T16:50:15.662Z,10.94
2019-01-13T16:53:05.902Z,10.94
2019-01-13T16:59:23.884Z,11.00
2019-01-13T17:02:12.264Z,11.00
2019-01-13T17:04:53.814Z,11.05
2019-01-13T17:07:36.476Z,11.02
2019-01-13T17:10:28.023Z,11.03
2019-01-13T17:13:25.517Z,11.05
2019-01-13T17:16:18.973Z,11.05
2019-01-13T17:19:51.585Z,11.11
2019-01-13T17:22:50.345Z,11.15
2019-01-13T17:25:31.224Z,11.19
2019-01-13T17:29:37.351Z,11.21
2019-01-13T17:31:30.734Z,11.21
2019-01-13T17:34:05.161Z,11.22
2019-01-13T17:36:54.856Z,11.24
2019-01-13T17:39:31.302Z,11.25
2019-01-13T17:42:15.801Z,11.23
2019-01-13T17:44:56.341Z,11.22
2019-01-13T17:55:10.068Z,11.09
2019-01-13T17:57:42.530Z,11.15
2019-01-13T18:00:48.100Z,11.20
2019-01-13T18:04:30.890Z,11.18
2019-01-13T18:24:00.929Z,11.27
2019-01-13T18:26:36.880Z,11.36
2019-01-13T18:29:12.036Z,11.35
2019-01-13T18:31:52.888Z,11.31
2019-01-13T18:34:28.842Z,11.30
2019-01-13T18:37:10.279Z,11.31
2019-01-13T18:39:42.093Z,11.34
2019-01-13T18:42:16.315Z,11.34
2019-01-13T18:44:49.587Z,11.43
2019-01-13T18:47:28.899Z,11.47
2019-01-13T18:50:07.037Z,11.49
2019-01-13T18:52:47.728Z,11.48
2019-01-13T18:55:24.463Z,11.49
2019-01-13T18:58:04.491Z,11.52
2019-01-13T19:00:42.517Z,11.53
2019-01-13T19:03:16.598Z,11.51
2019-01-13T19:05:54.689Z,11.42
2019-01-13T19:08:32.624Z,11.09
2019-01-13T19:11:34.736Z,10.82
2019-01-13T19:14:40.367Z,10.61
2019-01-13T19:17:21.331Z,10.38
2019-01-13T19:20:27.531Z,10.09
2019-01-13T19:23:08.386Z,9.94
2019-01-13T19:25:52.962Z,9.87
2019-01-13T19:28:30.148Z,9.82
2019-01-13T19:31:02.536Z,9.86
2019-01-13T19:33:33.647Z,9.88
2019-01-13T19:36:12.085Z,9.84
2019-01-13T19:38:44.547Z,9.76
2019-01-13T19:41:16.828Z,9.68
2019-01-13T19:43:47.351Z,9.63
2019-01-13T19:46:21.389Z,9.58
2019-01-13T19:48:51.926Z,9.54
2019-01-13T19:51:31.290Z,9.53
2019-01-13T19:54:06.704Z,9.49
2019-01-13T19:56:38.586Z,9.45
2019-01-13T19:59:10.787Z,9.42
2019-01-13T20:01:49.351Z,9.37
2019-01-13T20:04:44.354Z,9.36
2019-01-13T20:07:13.142Z,9.44
2019-01-13T20:09:47.129Z,9.52
2019-01-13T20:12:25.128Z,9.51
2019-01-13T20:14:55.739Z,9.55
2019-01-13T20:17:42.410Z,9.64
2019-01-13T20:20:20.809Z,9.68
2019-01-13T20:23:05.250Z,9.74
2019-01-13T20:25:47.332Z,9.74
2019-01-13T20:28:27.538Z,9.76
2019-01-13T20:31:06.771Z,9.79
2019-01-13T20:33:44.573Z,9.82
2019-01-13T20:36:27.566Z,9.86
2019-01-13T20:39:06.101Z,9.90
2019-01-13T20:41:50.770Z,9.95
2019-01-13T20:44:39.251Z,10.03
2019-01-13T20:47:13.793Z,10.03
2019-01-13T20:49:47.737Z,10.06
2019-01-13T20:52:23.108Z,10.05
2019-01-13T20:54:53.978Z,10.08
2019-01-13T20:57:26.146Z,10.08
2019-01-13T20:59:59.710Z,10.06
2019-01-13T21:02:40.561Z,10.09
2019-01-13T21:05:11.093Z,10.13
2019-01-13T21:07:41.517Z,10.17
2019-01-13T21:10:18.456Z,10.19
2019-01-13T21:12:53.466Z,10.22
2019-01-13T21:18:34.967Z,10.12
2019-01-13T21:21:19.888Z,10.02
2019-01-13T21:23:59.017Z,9.94
2019-01-13T21:26:32.151Z,9.87
2019-01-13T21:29:02.691Z,9.73
2019-01-13T21:31:39.228Z,9.69
2019-01-13T21:34:14.534Z,9.62
2019-01-13T21:36:49.024Z,9.62
2019-01-13T21:39:25.291Z,9.69
2019-01-13T21:41:58.826Z,9.68
2019-01-13T21:44:35.067Z,9.73
2019-01-13T21:47:17.349Z,9.80
2019-01-13T21:49:47.781Z,9.84
2019-01-13T21:52:34.281Z,9.88
2019-01-13T21:55:13.658Z,9.89
2019-01-13T21:57:48.654Z,9.89
2019-01-13T22:00:33.345Z,9.87
2019-01-13T22:03:05.816Z,9.88
2019-01-13T22:05:57.818Z,9.91
2019-01-13T22:08:30.744Z,9.90
2019-01-13T22:11:01.028Z,9.91
2019-01-13T22:13:46.650Z,9.91
2019-01-13T22:16:27.069Z,9.93
2019-01-13T22:19:03.544Z,9.93
2019-01-13T22:21:36.073Z,9.93
2019-01-13T22:24:14.437Z,9.94
2019-01-13T22:26:54.144Z,9.94
2019-01-13T22:30:11.171Z,9.92
2019-01-13T22:32:54.079Z,9.94
2019-01-13T22:35:34.424Z,9.97
2019-01-13T22:38:10.603Z,9.98
2019-01-13T22:40:54.224Z,10.03
2019-01-13T22:43:56.806Z,10.01
2019-01-13T22:46:28.512Z,10.03
2019-01-13T22:49:11.818Z,10.03
2019-01-13T22:51:51.891Z,10.04
2019-01-13T22:54:33.038Z,10.04
2019-01-13T22:57:05.393Z,10.09
2019-01-13T22:59:38.375Z,10.14
2019-01-13T23:02:08.898Z,10.12
2019-01-13T23:04:43.835Z,10.16
2019-01-13T23:07:23.205Z,10.12
2019-01-13T23:09:55.504Z,10.10
2019-01-13T23:12:40.906Z,10.03
2019-01-13T23:15:11.514Z,10.03
2019-01-13T23:17:46.077Z,9.98
2019-01-13T23:20:19.691Z,9.95
2019-01-13T23:22:50.166Z,9.87
2019-01-13T23:25:33.566Z,9.80
2019-01-13T23:28:11.987Z,9.76
2019-01-13T23:30:45.499Z,9.77
2019-01-13T23:33:18.782Z,9.80
2019-01-13T23:35:52.881Z,9.85
2019-01-13T23:38:24.788Z,9.86
2019-01-13T23:40:55.589Z,9.85
2019-01-13T23:43:27.795Z,9.87
2019-01-13T23:46:01.849Z,9.90
2019-01-13T23:48:32.753Z,9.89
2019-01-13T23:51:03.277Z,9.82
2019-01-13T23:53:37.723Z,9.79
2019-01-13T23:56:13.397Z,9.79
2019-01-13T23:58:45.861Z,9.80
